首页
METAR-TAF:

METAR-TAF

机场 :

杰克逊维尔, 佛罗里达州, 美国

纬度: 30-20-10N, 经度: 081-30-53W, 海拔: 12米

当前天气观测

该预报发布于15分钟前的12:53 UTC
风速5节,风向南转南东
温度 27°C
湿度 84%
气压 1016 hPa
能見度: 16.1公里
天空无云

METAR: KCRG 051253Z AUTO 15005KT 10SM CLR 27/24 A3001 RMK AO2 SLP161 T02670244

时间: 09:08 (13:08 UTC)

预报

该预报发布于1小时和48分钟前的11:20 UTC
预报有效从05日的 12点(UTC)到 06日的 12点(UTC)
风速6节,风向
能見度: 10公里
少量云层高于6000英尺
少量云层高于25000英尺
从 05日的 1700点(UTC)
风速9节,风向东转东南
能見度: 10公里
散云层高于4000英尺, 积雨云.
散云层高于15000英尺
散云层高于25000英尺
附近有雷暴
从 06日的 0000点(UTC)
风速6节,风向南转南东
能見度: 10公里
散云层高于6000英尺
多云层高于12000英尺
多云层高于25000英尺
附近有阵雨
从 06日的 0900点(UTC)
风速2节,风向西南
能見度: 9.7公里
少量云层高于4000英尺
散云层高于12000英尺
轻雾

TAF: KCRG 051120Z 0512/0612 18006KT P6SM FEW060 FEW250 FM051700 12009KT P6SM VCTS SCT040CB SCT150 SCT250 FM060000 15006KT P6SM VCSH SCT060 BKN120 BKN250 FM060900 22002KT 6SM BR FEW040 SCT120

超过4000个机场的气象观测和天气预报(METAR&TAF报告)。

可查询的气象台以黄色和红色小点在地图上表示。

将鼠标移到小点上方,可查看气象台名称。

然后点击查看天气观测和预报。

如需切换地图:点击带黑十字的绿色按钮放大地图;点击带横线的绿色按钮缩小地图;或者点击绿色箭头查看邻近地区的地图。


METAR-TAF: